Time;durP1;ratioP1;P1;durP2;ratioP2;P2;SDS_P1;SDS_P2;PMS_P1;PMS_P2;Temp;Humidity;BMP_temperature;BMP_pressure;BME280_temperature;BME280_humidity;BME280_pressure;Samples;Min_cycle;Max_cycle;Signal;HPM_P1;HPM_P2
2023/05/26 00:02:04;;;;;;;28.50;4.82;;;;;;;9.64;100.00;102951.91;5081418;28;20068;-46
2023/05/26 00:04:31;;;;;;;31.65;5.50;;;;;;;9.59;100.00;102951.44;5090668;28;20031;-45
2023/05/26 00:06:56;;;;;;;37.90;7.03;;;;;;;9.53;100.00;102948.34;5090400;28;20047;-49
2023/05/26 00:09:23;;;;;;;33.58;5.05;;;;;;;9.52;100.00;102958.25;5091119;28;20067;-47
2023/05/26 00:11:49;;;;;;;40.67;5.25;;;;;;;9.49;100.00;102961.19;5083963;28;20431;-44
2023/05/26 00:14:15;;;;;;;39.60;6.80;;;;;;;9.43;100.00;102959.88;5071978;28;20025;-43
2023/05/26 00:16:42;;;;;;;41.35;5.65;;;;;;;9.46;100.00;102958.75;5079081;28;20028;-50
2023/05/26 00:19:08;;;;;;;36.20;4.93;;;;;;;9.40;100.00;102964.59;5073927;28;20032;-45
2023/05/26 00:21:35;;;;;;;40.10;5.28;;;;;;;9.39;100.00;102960.22;5090320;28;20032;-45
2023/05/26 00:24:01;;;;;;;29.10;5.18;;;;;;;9.40;100.00;102969.97;5092324;28;20020;-48
2023/05/26 00:26:26;;;;;;;35.92;5.57;;;;;;;9.43;100.00;102975.13;5091943;28;20085;-47
2023/05/26 00:28:52;;;;;;;41.15;5.22;;;;;;;9.42;100.00;102968.03;5088980;28;20042;-45
2023/05/26 00:31:17;;;;;;;38.33;6.00;;;;;;;9.37;100.00;102972.91;5078231;28;20027;-46
2023/05/26 00:33:43;;;;;;;43.05;5.32;;;;;;;9.35;100.00;102977.59;5091351;28;20335;-45
2023/05/26 00:36:09;;;;;;;34.10;4.90;;;;;;;9.29;100.00;102978.91;5081643;28;20123;-45
2023/05/26 00:38:34;;;;;;;42.50;5.93;;;;;;;9.23;100.00;102969.50;5078608;28;20115;-48
2023/05/26 00:41:00;;;;;;;37.50;5.20;;;;;;;9.28;100.00;102977.19;5080201;28;20360;-46
2023/05/26 00:43:25;;;;;;;31.88;5.45;;;;;;;9.26;100.00;102976.47;5081750;28;20389;-45
2023/05/26 00:45:51;;;;;;;37.15;4.95;;;;;;;9.22;100.00;102981.22;5087803;28;20036;-47
2023/05/26 00:48:16;;;;;;;40.03;5.60;;;;;;;9.21;100.00;102982.19;5076152;28;20024;-45
2023/05/26 00:50:41;;;;;;;35.35;5.40;;;;;;;9.21;100.00;102981.34;5077674;28;20119;-46
2023/05/26 00:53:07;;;;;;;36.22;5.18;;;;;;;9.19;100.00;102975.25;5084889;28;20039;-45
2023/05/26 00:55:33;;;;;;;37.17;5.85;;;;;;;9.17;100.00;102974.50;5086793;28;20036;-47
2023/05/26 00:57:59;;;;;;;40.13;5.75;;;;;;;9.11;100.00;102970.47;5073430;28;20381;-44
2023/05/26 01:00:26;;;;;;;33.70;5.25;;;;;;;9.07;100.00;102968.16;5085939;28;20025;-45
2023/05/26 01:02:55;;;;;;;48.63;6.68;;;;;;;9.05;100.00;102975.47;5088169;28;20079;-46
2023/05/26 01:05:21;;;;;;;38.42;5.40;;;;;;;9.03;100.00;102967.53;5082973;28;20074;-45
2023/05/26 01:07:46;;;;;;;32.50;5.40;;;;;;;9.00;100.00;102971.31;5073792;28;20429;-43
2023/05/26 01:10:12;;;;;;;40.90;6.53;;;;;;;9.00;100.00;102984.75;5071004;28;20046;-46
2023/05/26 01:12:42;;;;;;;37.78;4.57;;;;;;;8.99;100.00;102991.06;5087348;28;20162;-46
2023/05/26 01:15:11;;;;;;;47.50;6.55;;;;;;;9.00;100.00;102979.38;5073311;28;20442;-43
2023/05/26 01:17:45;;;;;;;34.97;5.68;;;;;;;8.98;100.00;102991.22;5071264;28;20024;-43
2023/05/26 01:20:17;;;;;;;42.33;6.57;;;;;;;8.95;100.00;102984.25;5069281;28;20029;-49
2023/05/26 01:22:48;;;;;;;36.65;6.20;;;;;;;8.89;100.00;102990.06;5070052;28;20075;-47
2023/05/26 01:25:28;;;;;;;40.28;6.05;;;;;;;8.86;100.00;102987.63;5080101;28;20032;-44
2023/05/26 01:28:02;;;;;;;47.85;4.85;;;;;;;8.86;100.00;102997.53;5081151;28;20028;-45
2023/05/26 01:30:29;;;;;;;38.60;6.00;;;;;;;8.84;100.00;102997.63;5085017;28;20062;-43
2023/05/26 01:32:54;;;;;;;32.97;4.78;;;;;;;8.81;100.00;102991.66;5071541;28;20083;-45
2023/05/26 01:35:19;;;;;;;38.20;5.32;;;;;;;8.82;100.00;102996.03;5077719;28;20036;-48
2023/05/26 01:37:46;;;;;;;32.55;5.55;;;;;;;8.83;100.00;103003.13;5071354;28;20033;-46
2023/05/26 01:40:12;;;;;;;41.90;5.90;;;;;;;8.77;100.00;102999.09;5058715;28;20493;-46
2023/05/26 01:42:41;;;;;;;37.05;5.50;;;;;;;8.75;100.00;102995.66;5080339;28;20070;-47
2023/05/26 01:45:11;;;;;;;47.45;6.28;;;;;;;8.74;100.00;103000.19;5056556;28;20024;-45
2023/05/26 01:47:39;;;;;;;43.35;6.00;;;;;;;8.75;100.00;103001.03;5088619;28;20440;-45
2023/05/26 01:50:06;;;;;;;47.47;5.85;;;;;;;8.74;100.00;103000.19;5071650;28;20286;-46
2023/05/26 01:52:31;;;;;;;43.55;5.68;;;;;;;8.76;100.00;103002.72;5087956;28;20031;-47
2023/05/26 01:54:58;;;;;;;50.38;6.63;;;;;;;8.76;100.00;103005.41;5081561;28;20526;-44
2023/05/26 01:57:24;;;;;;;37.83;5.78;;;;;;;8.76;100.00;103002.72;5069752;28;20073;-44
2023/05/26 01:59:51;;;;;;;43.83;6.05;;;;;;;8.77;100.00;103009.84;5072392;28;20036;-46
2023/05/26 02:02:16;;;;;;;32.63;5.50;;;;;;;8.76;100.00;103006.25;5087628;28;20077;-47
2023/05/26 02:04:42;;;;;;;35.05;5.82;;;;;;;8.75;100.00;103011.78;5085405;28;20421;-47
2023/05/26 02:07:07;;;;;;;35.28;5.20;;;;;;;8.81;100.00;103010.44;5069537;28;20052;-49
2023/05/26 02:09:33;;;;;;;32.95;5.30;;;;;;;8.80;100.00;103014.97;5052451;28;20052;-47
2023/05/26 02:11:58;;;;;;;43.70;4.97;;;;;;;8.78;100.00;103016.91;5071772;28;20028;-46
2023/05/26 02:14:23;;;;;;;50.13;6.38;;;;;;;8.77;100.00;103015.19;5082295;28;20040;-47
2023/05/26 02:16:49;;;;;;;42.85;5.47;;;;;;;8.83;100.00;103014.72;5090058;28;20028;-46
2023/05/26 02:19:14;;;;;;;29.15;5.22;;;;;;;8.86;100.00;103014.47;5087954;28;20029;-48
2023/05/26 02:21:40;;;;;;;38.63;6.50;;;;;;;8.87;100.00;103023.38;5085713;28;20032;-47
2023/05/26 02:24:05;;;;;;;36.88;5.28;;;;;;;8.91;100.00;103017.66;5072226;28;20089;-47
2023/05/26 02:26:31;;;;;;;44.25;5.78;;;;;;;8.92;100.00;103024.75;5080900;28;20036;-46
2023/05/26 02:28:56;;;;;;;42.63;5.68;;;;;;;8.94;100.00;103017.44;5075223;28;20020;-46
2023/05/26 02:31:22;;;;;;;46.78;6.82;;;;;;;8.95;100.00;103013.78;5072659;28;20036;-44
2023/05/26 02:33:48;;;;;;;49.63;5.95;;;;;;;8.94;100.00;103014.75;5051451;28;20320;-47
2023/05/26 02:36:13;;;;;;;36.63;5.57;;;;;;;8.93;100.00;103009.50;5069388;28;20041;-47
2023/05/26 02:38:39;;;;;;;43.60;6.22;;;;;;;8.93;100.00;103020.25;5069908;28;20103;-47
2023/05/26 02:41:05;;;;;;;36.55;5.38;;;;;;;8.89;100.00;103016.06;5068212;28;20082;-49
2023/05/26 02:43:30;;;;;;;40.88;6.00;;;;;;;8.84;100.00;103021.78;5074537;28;20020;-46
2023/05/26 02:45:55;;;;;;;47.78;5.93;;;;;;;8.86;100.00;103019.84;5088669;28;20497;-46
2023/05/26 02:48:21;;;;;;;43.38;5.90;;;;;;;8.89;100.00;103024.13;5090322;28;20335;-45
2023/05/26 02:50:46;;;;;;;42.72;5.53;;;;;;;8.89;100.00;103019.63;5080811;28;20189;-46
2023/05/26 02:53:11;;;;;;;49.33;7.03;;;;;;;8.92;100.00;103022.06;5069622;28;20056;-46
2023/05/26 02:55:38;;;;;;;44.65;6.93;;;;;;;8.89;100.00;103024.97;5069455;28;20059;-46
2023/05/26 02:58:03;;;;;;;42.63;5.85;;;;;;;8.95;100.00;103029.91;5072834;28;20119;-45
2023/05/26 03:00:29;;;;;;;43.72;5.93;;;;;;;8.92;100.00;103014.00;5074026;28;20125;-44
2023/05/26 03:02:54;;;;;;;41.53;5.55;;;;;;;8.90;100.00;103024.03;5087955;28;20325;-47
2023/05/26 03:05:19;;;;;;;41.88;5.38;;;;;;;8.92;100.00;103018.53;5088401;28;20021;-47
2023/05/26 03:07:45;;;;;;;39.67;6.07;;;;;;;8.89;100.00;103018.75;5083747;28;20085;-45
2023/05/26 03:10:10;;;;;;;46.50;5.60;;;;;;;8.85;100.00;103023.53;5077041;28;20025;-46
2023/05/26 03:12:36;;;;;;;61.40;7.13;;;;;;;8.91;100.00;103022.19;5076811;28;20032;-45
2023/05/26 03:15:03;;;;;;;44.92;5.90;;;;;;;8.95;100.00;103021.84;5083364;28;20028;-46
2023/05/26 03:17:28;;;;;;;44.13;5.87;;;;;;;8.90;100.00;103028.53;5091314;28;20024;-47
2023/05/26 03:19:53;;;;;;;40.10;5.18;;;;;;;8.94;100.00;103025.50;5081125;28;20085;-46
2023/05/26 03:22:19;;;;;;;43.22;6.00;;;;;;;8.99;100.00;103025.16;5075392;28;20047;-45
2023/05/26 03:24:44;;;;;;;37.20;5.47;;;;;;;8.97;100.00;103030.63;5084837;28;20111;-47
2023/05/26 03:27:10;;;;;;;40.13;5.90;;;;;;;8.96;100.00;103026.25;5083230;28;20028;-47
2023/05/26 03:29:35;;;;;;;28.88;4.97;;;;;;;8.98;100.00;103024.28;5090367;28;20039;-49
2023/05/26 03:32:00;;;;;;;35.08;5.55;;;;;;;9.00;100.00;103032.22;5083930;28;20028;-47
2023/05/26 03:34:26;;;;;;;47.63;5.00;;;;;;;8.99;100.00;103026.00;5084610;28;20027;-46
2023/05/26 03:36:52;;;;;;;42.70;5.40;;;;;;;8.98;100.00;103028.81;5092228;28;20438;-44
2023/05/26 03:39:18;;;;;;;38.00;6.20;;;;;;;8.99;100.00;103023.31;5091511;28;20114;-44
2023/05/26 03:41:44;;;;;;;42.63;5.18;;;;;;;8.97;100.00;103035.13;5092476;28;20110;-46
2023/05/26 03:44:09;;;;;;;41.45;5.82;;;;;;;8.96;100.00;103031.59;5092882;28;20016;-50
2023/05/26 03:46:35;;;;;;;59.55;5.85;;;;;;;8.95;100.00;103035.28;5091088;28;20263;-47
2023/05/26 03:49:00;;;;;;;44.05;5.78;;;;;;;9.01;100.00;103040.16;5092645;28;20051;-46
2023/05/26 03:51:26;;;;;;;38.70;5.80;;;;;;;9.08;100.00;103040.53;5081651;28;20092;-45
2023/05/26 03:53:51;;;;;;;48.88;5.75;;;;;;;9.05;100.00;103039.94;5082283;28;20072;-45
2023/05/26 03:56:17;;;;;;;45.03;5.93;;;;;;;9.08;100.00;103034.31;5074315;28;20028;-47
2023/05/26 03:58:42;;;;;;;40.83;6.32;;;;;;;9.07;100.00;103038.00;5071659;28;20522;-45
2023/05/26 04:01:07;;;;;;;47.97;5.70;;;;;;;9.10;100.00;103040.44;5078275;28;20035;-49
2023/05/26 04:03:33;;;;;;;44.15;7.43;;;;;;;9.10;100.00;103037.75;5082939;28;20040;-46
2023/05/26 04:05:59;;;;;;;41.20;6.60;;;;;;;9.13;100.00;103043.72;5079443;28;20047;-47
2023/05/26 04:08:28;;;;;;;51.65;5.65;;;;;;;9.18;100.00;103046.91;5086033;28;20024;-47
2023/05/26 04:10:54;;;;;;;51.35;6.05;;;;;;;9.19;100.00;103037.03;5088749;28;20058;-47
2023/05/26 04:13:20;;;;;;;48.45;7.00;;;;;;;9.18;100.00;103040.69;5078864;28;20135;-45
2023/05/26 04:15:45;;;;;;;41.03;5.90;;;;;;;9.20;100.00;103044.97;5079633;28;20116;-49
2023/05/26 04:18:10;;;;;;;38.15;5.72;;;;;;;9.21;100.00;103035.06;5083735;28;20036;-45
2023/05/26 04:20:36;;;;;;;45.70;6.57;;;;;;;9.23;100.00;103039.34;5073349;28;20032;-44
2023/05/26 04:23:02;;;;;;;53.63;6.00;;;;;;;9.26;100.00;103043.63;5088119;28;20036;-45
2023/05/26 04:25:27;;;;;;;60.60;6.70;;;;;;;9.32;100.00;103043.19;5071514;28;20044;-46
2023/05/26 04:27:56;;;;;;;43.10;5.75;;;;;;;9.36;100.00;103033.88;5074709;28;20028;-46
2023/05/26 04:30:22;;;;;;;42.47;6.05;;;;;;;9.41;100.00;103036.22;5079863;28;20389;-46
2023/05/26 04:32:48;;;;;;;32.88;5.63;;;;;;;9.43;100.00;103037.81;5085938;28;20035;-46
2023/05/26 04:35:13;;;;;;;55.05;6.28;;;;;;;9.51;100.00;103036.34;5084833;28;20032;-44
2023/05/26 04:37:40;;;;;;;44.45;5.72;;;;;;;9.51;100.00;103042.59;5073273;28;20030;-46
2023/05/26 04:40:06;;;;;;;36.55;5.72;;;;;;;9.53;100.00;103035.25;5086621;28;20062;-46
2023/05/26 04:42:35;;;;;;;44.40;6.88;;;;;;;9.58;100.00;103043.78;5074884;28;20047;-47
2023/05/26 04:45:00;;;;;;;;;;;;;;;9.63;100.00;103040.75;5086671;28;20024;-46
2023/05/26 04:47:27;;;;;;;59.30;6.35;;;;;;;9.66;100.00;103038.69;5082568;28;19912;-43
2023/05/26 04:49:53;;;;;;;38.33;6.53;;;;;;;9.68;100.00;103050.16;5086433;28;20024;-49
2023/05/26 04:52:18;;;;;;;38.05;5.38;;;;;;;9.76;100.00;103054.06;5073943;28;20077;-48
2023/05/26 04:54:43;;;;;;;43.95;5.60;;;;;;;9.83;100.00;103055.31;5073350;28;20398;-46
2023/05/26 04:57:09;;;;;;;42.97;6.38;;;;;;;9.89;100.00;103069.09;5071253;28;20486;-47
2023/05/26 04:59:37;;;;;;;37.83;5.03;;;;;;;9.91;100.00;103060.91;5088301;28;20078;-46
2023/05/26 05:02:03;;;;;;;54.85;6.13;;;;;;;9.95;100.00;103069.59;5085404;28;20028;-50
2023/05/26 05:04:28;;;;;;;38.75;4.63;;;;;;;9.94;100.00;103070.56;5086189;28;20139;-45
2023/05/26 05:06:54;;;;;;;35.63;5.22;;;;;;;9.98;100.00;103066.63;5080070;28;20089;-47
2023/05/26 05:09:20;;;;;;;51.45;5.60;;;;;;;10.09;100.00;103075.56;5076707;28;20113;-46
2023/05/26 05:11:46;;;;;;;41.38;5.32;;;;;;;10.18;100.00;103081.19;5081504;28;20588;-48
2023/05/26 05:14:12;;;;;;;41.75;5.43;;;;;;;10.21;100.00;103079.09;5086271;28;20028;-47
2023/05/26 05:16:37;;;;;;;49.38;5.43;;;;;;;10.28;100.00;103082.19;5079717;28;20024;-46
2023/05/26 05:19:02;;;;;;;41.17;5.55;;;;;;;10.36;100.00;103082.41;5078936;28;20096;-46
2023/05/26 05:21:28;;;;;;;36.20;5.07;;;;;;;10.47;100.00;103082.38;5071078;28;20089;-43
2023/05/26 05:23:53;;;;;;;50.83;5.65;;;;;;;10.55;100.00;103084.44;5070215;28;20024;-47
2023/05/26 05:26:18;;;;;;;42.78;6.72;;;;;;;10.67;100.00;103078.03;5085287;28;20020;-47
2023/05/26 05:28:44;;;;;;;42.17;6.60;;;;;;;10.77;100.00;103073.59;5075497;28;20024;-47
2023/05/26 05:31:09;;;;;;;38.35;5.53;;;;;;;10.83;100.00;103084.84;5080621;28;20043;-46
2023/05/26 05:33:38;;;;;;;40.55;5.13;;;;;;;10.84;100.00;103086.53;5091298;28;20031;-44
2023/05/26 05:36:04;;;;;;;45.17;6.80;;;;;;;10.84;100.00;103082.00;5082284;28;20024;-47
2023/05/26 05:38:29;;;;;;;41.63;5.65;;;;;;;10.88;100.00;103083.47;5072181;28;20059;-47
2023/05/26 05:40:54;;;;;;;43.47;5.40;;;;;;;10.98;100.00;103086.25;5085483;28;20103;-45
2023/05/26 05:43:20;;;;;;;42.22;5.53;;;;;;;11.07;100.00;103087.31;5077464;28;20032;-47
2023/05/26 05:45:45;;;;;;;39.25;4.45;;;;;;;11.02;100.00;103087.69;5089727;28;20049;-47
2023/05/26 05:48:10;;;;;;;49.45;5.93;;;;;;;10.99;100.00;103085.25;5088641;28;20462;-44
2023/05/26 05:50:36;;;;;;;37.42;5.40;;;;;;;11.02;100.00;103095.78;5088570;28;20032;-47
2023/05/26 05:53:01;;;;;;;34.47;5.00;;;;;;;11.10;100.00;103081.66;5081042;28;20066;-46
2023/05/26 05:55:26;;;;;;;36.90;5.30;;;;;;;11.08;100.00;103087.16;5068165;28;20051;-47
2023/05/26 05:57:53;;;;;;;33.20;5.50;;;;;;;11.02;100.00;103095.78;5069810;28;20024;-45
2023/05/26 06:00:19;;;;;;;36.92;5.40;;;;;;;11.10;100.00;103093.28;5066042;28;20021;-48
2023/05/26 06:02:44;;;;;;;50.05;6.47;;;;;;;11.29;100.00;103089.00;5063521;28;20497;-45
2023/05/26 06:05:10;;;;;;;32.38;5.50;;;;;;;11.38;100.00;103086.38;5082569;28;20419;-45
2023/05/26 06:07:35;;;;;;;38.17;6.70;;;;;;;11.41;100.00;103096.91;5083293;28;20020;-45
2023/05/26 06:10:01;;;;;;;37.72;5.35;;;;;;;11.62;100.00;103087.94;5084018;28;20109;-47
2023/05/26 06:12:26;;;;;;;46.15;5.70;;;;;;;11.82;100.00;103091.56;5083032;28;20058;-48
2023/05/26 06:14:51;;;;;;;46.50;5.43;;;;;;;12.04;100.00;103099.53;5084547;28;20028;-46
2023/05/26 06:17:17;;;;;;;35.97;5.20;;;;;;;12.44;100.00;103090.53;5084091;28;20075;-47
2023/05/26 06:19:42;;;;;;;41.45;5.80;;;;;;;12.76;100.00;103091.28;5080571;28;20044;-47
2023/05/26 06:22:07;;;;;;;42.33;6.38;;;;;;;12.92;100.00;103089.72;5080008;28;20452;-47
2023/05/26 06:24:33;;;;;;;50.05;9.60;;;;;;;12.90;100.00;103091.75;5080157;28;20051;-47
2023/05/26 06:26:58;;;;;;;51.75;5.85;;;;;;;12.86;100.00;103084.06;5083576;28;20028;-47
2023/05/26 06:29:23;;;;;;;50.58;6.40;;;;;;;12.78;100.00;103092.88;5090030;28;20028;-46
2023/05/26 06:31:49;;;;;;;32.75;4.78;;;;;;;12.75;100.00;103087.75;5090686;28;20072;-45
2023/05/26 06:34:14;;;;;;;34.42;6.00;;;;;;;12.69;100.00;103089.16;5092799;28;20020;-47
2023/05/26 06:36:39;;;;;;;40.05;4.63;;;;;;;12.57;100.00;103084.03;5094365;28;20104;-47
2023/05/26 06:39:05;;;;;;;38.92;5.05;;;;;;;12.56;100.00;103085.00;5093212;28;20027;-46
2023/05/26 06:41:30;;;;;;;39.00;4.68;;;;;;;12.68;100.00;103089.28;5085146;28;20335;-48
2023/05/26 06:43:56;;;;;;;38.80;5.03;;;;;;;12.60;100.00;103083.75;5085696;28;20059;-47
2023/05/26 06:46:21;;;;;;;38.67;5.72;;;;;;;12.64;100.00;103079.78;5076180;28;20066;-47
2023/05/26 06:48:46;;;;;;;33.75;5.53;;;;;;;12.81;100.00;103084.47;5084326;28;20065;-47
2023/05/26 06:51:12;;;;;;;47.45;5.25;;;;;;;13.23;100.00;103081.47;5082507;28;20165;-45
2023/05/26 06:53:38;;;;;;;38.83;4.40;;;;;;;14.04;100.00;103089.91;5082896;28;20072;-50
2023/05/26 06:56:05;;;;;;;41.78;6.03;;;;;;;14.65;100.00;103080.31;5082487;28;20028;-48
2023/05/26 06:58:31;;;;;;;38.60;5.35;;;;;;;14.84;100.00;103083.88;5081660;28;20111;-48
2023/05/26 07:00:58;;;;;;;32.80;5.45;;;;;;;14.83;100.00;103098.44;5081296;28;20501;-47
2023/05/26 07:03:26;;;;;;;38.10;5.75;;;;;;;14.86;100.00;103098.13;5078605;28;20031;-49
2023/05/26 07:05:51;;;;;;;;;;;;;;;15.49;100.00;103111.53;5080776;28;20027;-47
2023/05/26 07:08:17;;;;;;;26.88;4.75;;;;;;;15.85;100.00;103089.72;5080163;28;20277;-48
2023/05/26 07:10:42;;;;;;;33.85;5.05;;;;;;;15.78;100.00;103088.66;5083006;28;20034;-46
2023/05/26 07:13:07;;;;;;;30.05;4.90;;;;;;;16.12;100.00;103101.38;5080080;28;20105;-48
2023/05/26 07:15:33;;;;;;;29.73;4.43;;;;;;;16.70;99.71;103086.94;5077167;28;20028;-47
2023/05/26 07:17:58;;;;;;;29.67;4.80;;;;;;;16.85;98.78;103098.88;5078875;28;20016;-52
2023/05/26 07:20:23;;;;;;;30.08;5.60;;;;;;;17.19;94.37;103097.84;5080309;28;20109;-47
2023/05/26 07:22:50;;;;;;;31.73;4.75;;;;;;;16.68;95.16;103097.13;5081451;28;20020;-46
2023/05/26 07:25:15;;;;;;;27.50;4.90;;;;;;;16.33;98.45;103099.09;5081496;28;20444;-45
2023/05/26 07:27:41;;;;;;;24.80;4.75;;;;;;;16.62;99.16;103092.34;5071807;28;20173;-47
2023/05/26 07:30:07;;;;;;;21.25;5.45;;;;;;;16.96;94.83;103089.53;5081057;28;20493;-49
2023/05/26 07:32:32;;;;;;;22.48;4.38;;;;;;;17.62;92.19;103093.03;5082009;28;20454;-46
2023/05/26 07:34:58;;;;;;;26.20;4.32;;;;;;;18.55;86.86;103108.69;5082317;28;20056;-46
2023/05/26 07:37:23;;;;;;;21.83;4.63;;;;;;;18.96;80.75;103094.78;5080722;28;20185;-45
2023/05/26 07:39:48;;;;;;;21.30;4.60;;;;;;;19.00;79.31;103098.00;5079018;28;20060;-46
2023/05/26 07:42:14;;;;;;;20.15;4.07;;;;;;;19.43;78.62;103090.97;5066353;28;20440;-47
2023/05/26 07:44:39;;;;;;;21.42;4.70;;;;;;;19.80;74.41;103086.50;5080031;28;20111;-45
2023/05/26 07:47:05;;;;;;;26.65;4.65;;;;;;;19.71;73.28;103093.91;5062037;28;20036;-45
2023/05/26 07:49:30;;;;;;;23.27;4.38;;;;;;;19.96;72.27;103088.19;5075962;28;20493;-43
2023/05/26 07:51:55;;;;;;;25.48;4.93;;;;;;;19.84;70.79;103076.03;5078111;28;20039;-46
2023/05/26 07:54:21;;;;;;;19.52;4.28;;;;;;;19.57;72.83;103085.69;5077794;28;20131;-48
2023/05/26 07:56:46;;;;;;;25.65;5.18;;;;;;;19.58;73.72;103087.38;5077139;28;20517;-47
2023/05/26 07:59:11;;;;;;;24.85;4.30;;;;;;;19.35;71.90;103085.56;5078064;28;20317;-47
2023/05/26 08:01:37;;;;;;;28.80;5.15;;;;;;;19.42;74.25;103085.66;5082380;28;20599;-46
2023/05/26 08:04:03;;;;;;;18.40;3.58;;;;;;;19.51;71.72;103093.59;5078153;28;20050;-47
2023/05/26 08:06:29;;;;;;;18.20;4.60;;;;;;;19.81;70.96;103085.44;5078106;28;20036;-46
2023/05/26 08:08:55;;;;;;;24.50;4.30;;;;;;;19.53;71.06;103086.03;5080020;28;20032;-49
2023/05/26 08:11:23;;;;;;;20.73;4.28;;;;;;;19.88;70.99;103089.13;5080922;28;20017;-45
2023/05/26 08:13:49;;;;;;;23.98;4.35;;;;;;;20.18;69.47;103091.81;5079881;28;20032;-45
2023/05/26 08:16:15;;;;;;;20.50;4.35;;;;;;;20.21;69.13;103088.69;5079574;28;20096;-45
2023/05/26 08:18:41;;;;;;;23.42;4.50;;;;;;;19.74;71.36;103087.22;5078369;28;20355;-47
2023/05/26 08:21:06;;;;;;;29.20;4.70;;;;;;;20.11;70.41;103093.59;5078576;28;20439;-48
2023/05/26 08:23:32;;;;;;;19.10;4.18;;;;;;;20.72;67.10;103080.47;5079699;28;20070;-47
2023/05/26 08:25:57;;;;;;;28.55;4.57;;;;;;;21.55;65.34;103083.50;5076651;28;20044;-44
2023/05/26 08:28:23;;;;;;;22.20;4.40;;;;;;;21.47;61.71;103083.66;5076890;28;20477;-46
2023/05/26 08:30:48;;;;;;;23.55;5.18;;;;;;;20.98;64.16;103081.75;5082214;28;20060;-47
2023/05/26 08:33:13;;;;;;;24.25;4.65;;;;;;;21.21;63.97;103087.84;5074432;28;20445;-45
2023/05/26 08:35:39;;;;;;;17.85;3.85;;;;;;;21.47;61.31;103086.38;5075677;28;20686;-46
2023/05/26 08:38:06;;;;;;;18.52;4.50;;;;;;;21.40;60.33;103085.47;5076690;28;20029;-46
2023/05/26 08:40:33;;;;;;;16.45;3.85;;;;;;;21.34;60.09;103092.56;5077656;28;20020;-43
2023/05/26 08:43:00;;;;;;;17.13;3.38;;;;;;;21.03;59.35;103098.44;5076259;28;20060;-46
2023/05/26 08:45:25;;;;;;;;;;;;;;;20.73;60.63;103093.09;5081648;28;20038;-45
2023/05/26 08:47:52;;;;;;;18.67;4.37;;;;;;;20.53;61.20;103098.31;5078940;28;19983;-46
2023/05/26 08:50:18;;;;;;;21.85;3.92;;;;;;;20.36;63.36;103092.25;5079696;28;20844;-49
2023/05/26 08:52:43;;;;;;;17.45;4.10;;;;;;;20.59;62.69;103091.28;5076237;28;20077;-44
2023/05/26 08:55:08;;;;;;;26.13;4.80;;;;;;;20.76;62.70;103094.59;5076436;28;20048;-45
2023/05/26 08:57:34;;;;;;;19.10;4.10;;;;;;;21.00;61.43;103101.56;5078167;28;20029;-42
2023/05/26 09:00:02;;;;;;;20.27;4.00;;;;;;;21.05;61.66;103090.88;5077623;28;20032;-46
2023/05/26 09:02:28;;;;;;;25.77;4.20;;;;;;;21.39;60.30;103092.03;5077970;28;20051;-47
2023/05/26 09:04:54;;;;;;;22.50;4.40;;;;;;;21.47;60.79;103080.91;5076943;28;20031;-45
2023/05/26 09:07:19;;;;;;;17.33;4.38;;;;;;;21.37;59.03;103085.84;5075790;28;20048;-47
2023/05/26 09:09:45;;;;;;;20.25;4.45;;;;;;;21.47;60.51;103083.66;5077704;28;20024;-46
2023/05/26 09:12:11;;;;;;;16.52;4.35;;;;;;;21.74;60.11;103094.78;5068542;28;20153;-43
2023/05/26 09:14:39;;;;;;;21.35;5.07;;;;;;;21.10;59.89;103091.13;5076181;28;20093;-44
2023/05/26 09:17:04;;;;;;;18.25;4.72;;;;;;;21.05;62.41;103090.88;5086669;28;20032;-45
2023/05/26 09:19:32;;;;;;;18.75;4.50;;;;;;;21.59;62.61;103086.66;5085869;28;20024;-45
2023/05/26 09:22:05;;;;;;;20.95;4.22;;;;;;;22.02;57.65;103091.97;5088761;28;20024;-46
2023/05/26 09:24:44;;;;;;;21.55;3.92;;;;;;;21.81;57.21;103101.16;5086433;28;20393;-47
2023/05/26 09:27:20;;;;;;;13.50;3.72;;;;;;;21.59;56.94;103103.97;5088907;28;20089;-44
2023/05/26 09:29:50;;;;;;;17.77;3.67;;;;;;;21.64;57.65;103096.00;5085665;28;20450;-48
2023/05/26 09:32:15;;;;;;;13.60;3.95;;;;;;;21.17;56.70;103093.91;5069090;28;20039;-44
2023/05/26 09:34:41;;;;;;;16.75;4.03;;;;;;;21.38;58.43;103098.53;5068485;28;20033;-47
2023/05/26 09:37:08;;;;;;;17.08;4.13;;;;;;;21.98;57.53;103097.00;5084905;28;20028;-46
2023/05/26 09:39:34;;;;;;;17.98;4.25;;;;;;;21.90;57.63;103095.28;5088791;28;20027;-45
2023/05/26 09:42:04;;;;;;;21.02;4.00;;;;;;;21.50;56.49;103098.84;5085979;28;20366;-44
2023/05/26 09:44:31;;;;;;;25.00;4.13;;;;;;;21.25;56.64;103097.38;5087262;28;20505;-45
2023/05/26 09:46:57;;;;;;;19.10;4.25;;;;;;;20.83;58.33;103101.84;5080321;28;20027;-43
2023/05/26 09:49:22;;;;;;;23.42;4.43;;;;;;;20.83;58.99;103093.63;5068229;28;20061;-44
2023/05/26 09:51:51;;;;;;;24.92;4.28;;;;;;;20.89;58.97;103082.94;5069818;28;20028;-44
2023/05/26 09:54:16;;;;;;;15.65;3.60;;;;;;;21.44;56.60;103105.97;5068765;28;20087;-44
2023/05/26 09:57:05;;;;;;;19.50;3.95;;;;;;;21.10;56.63;103088.38;5066949;28;20044;-46
2023/05/26 09:59:32;;;;;;;17.20;4.50;;;;;;;21.14;58.00;103084.19;5066757;28;20068;-48
2023/05/26 10:01:59;;;;;;;18.57;4.07;;;;;;;21.36;56.59;103081.44;5068691;28;20021;-44
2023/05/26 10:04:24;;;;;;;15.02;4.00;;;;;;;21.84;55.72;103087.03;5086194;28;20492;-46
2023/05/26 10:06:51;;;;;;;24.55;4.47;;;;;;;22.34;54.95;103079.47;5088038;28;20432;-44
2023/05/26 10:09:21;;;;;;;12.68;3.33;;;;;;;22.98;52.40;103078.97;5084600;28;20048;-46
2023/05/26 10:11:47;;;;;;;18.40;4.40;;;;;;;22.87;51.94;103074.06;5087627;28;20032;-44
2023/05/26 10:14:13;;;;;;;14.73;4.07;;;;;;;22.81;53.08;103066.69;5085316;28;20028;-48
2023/05/26 10:16:38;;;;;;;18.08;4.45;;;;;;;22.59;52.87;103079.72;5088421;28;20080;-43
2023/05/26 10:19:05;;;;;;;20.50;4.95;;;;;;;22.06;55.00;103072.16;5081611;28;20101;-47
2023/05/26 10:21:35;;;;;;;20.70;4.93;;;;;;;21.80;56.24;103072.91;5067910;28;20493;-44
2023/05/26 10:24:13;;;;;;;16.83;4.28;;;;;;;22.36;55.82;103071.88;5067941;28;20270;-46
2023/05/26 10:26:56;;;;;;;19.45;4.55;;;;;;;22.45;55.57;103064.31;5067784;28;20082;-45
2023/05/26 10:29:29;;;;;;;17.10;4.43;;;;;;;22.76;55.77;103069.22;5066705;28;20033;-45
2023/05/26 10:31:55;;;;;;;22.63;4.65;;;;;;;23.14;54.73;103082.34;5087685;28;20032;-45
2023/05/26 10:34:42;;;;;;;21.55;4.65;;;;;;;23.06;54.27;103074.31;5087095;28;20118;-45
2023/05/26 10:37:17;;;;;;;16.40;4.32;;;;;;;23.04;53.67;103081.91;5084673;28;20071;-44
2023/05/26 10:39:43;;;;;;;22.58;5.13;;;;;;;22.96;53.34;103067.38;5088690;28;20032;-44
2023/05/26 10:42:16;;;;;;;18.85;4.60;;;;;;;22.76;54.33;103072.81;5085249;28;20027;-46
2023/05/26 10:44:44;;;;;;;17.48;4.50;;;;;;;23.02;52.72;103064.84;5086384;28;20047;-46
2023/05/26 10:47:14;;;;;;;16.50;3.63;;;;;;;23.17;51.29;103068.19;5085691;28;20057;-45
2023/05/26 10:49:40;;;;;;;14.05;3.78;;;;;;;23.30;49.30;103070.94;5087775;28;20064;-47
2023/05/26 10:52:13;;;;;;;18.42;4.70;;;;;;;23.11;50.33;103077.28;5085969;28;20110;-43
2023/05/26 10:54:39;;;;;;;19.15;4.72;;;;;;;23.08;50.59;103080.47;5088177;28;20133;-44
2023/05/26 10:57:06;;;;;;;16.60;4.55;;;;;;;22.98;51.51;103067.13;5085602;28;20028;-45
2023/05/26 10:59:33;;;;;;;19.98;4.70;;;;;;;23.22;50.18;103076.63;5088366;28;20017;-45
2023/05/26 11:02:05;;;;;;;;;;;;;;;23.17;48.69;103073.69;5087824;28;20119;-46
2023/05/26 11:04:41;;;;;;;17.92;4.13;;;;;;;22.81;48.72;103063.94;5067560;28;20320;-44
2023/05/26 11:07:16;;;;;;;22.92;4.05;;;;;;;22.55;50.47;103057.34;5067623;28;20058;-47
2023/05/26 11:09:57;;;;;;;18.05;4.45;;;;;;;21.94;52.09;103051.88;5086440;28;20028;-45
2023/05/26 11:12:23;;;;;;;18.13;3.92;;;;;;;21.76;51.28;103060.63;5087971;28;20521;-45
2023/05/26 11:14:48;;;;;;;18.88;4.13;;;;;;;22.07;52.24;103059.31;5085338;28;20024;-43